KHAI/HAI METAR and TAF weather

Enter ICAO airport designator
Station Type Date Time Source
KHAI METAR 2019/02/17 07:36 UTC NOAA

KHAI 170736Z AUTO 12010G14KT 10SM OVC019 M04/M08 A3002 RMK AO2 T10451085


Station Type Date Time Source
KHAI Decoded METAR 2019/02/17 07:36 UTC NOAA

Station name not available
Feb 17, 2019 - 02:36 AM EST / 2019.02.17 0736 UTC
Wind: from the ESE (120 degrees) at 12 MPH (10 KT) gusting to 16 MPH (14 KT):0
Visibility: 10 mile(s):0
Sky conditions: overcast
Temperature: 23.9 F (-4.5 C)
Windchill: 12 F (-11 C):1
Dew Point: 16.7 F (-8.5 C)
Relative Humidity: 73%
Pressure (altimeter): 30.02 in. Hg (1016 hPa)
ob: KHAI 170736Z AUTO 12010G14KT 10SM OVC019 M04/M08 A3002 RMK AO2 T10451085
cycle: 7

Station Type Date Time Source
KHAI TAF UTC NOAA

Error!


Example: see airport list